Accueil
METAR-TAF:

METAR-TAF

Aéroports :

Grand Marais, Minnesota, États-Unis

latitude: 47-50N, longitude: 090-23W, altitude: 186 m

Observation

Le bulletin a été fait il y a 59 minutes, à 18:56 UTC
Vent 11 kt de est/nord-est
Température 6°C
Humidité 65%
Pression 1020 hPa

METAR: KGNA 021856Z AUTO 06011KT 06/00 A3012 RMK AO1 SLP209 T00560000

Heure: 14:55 (19:55 UTC)


TAF: absent

Observations et prévisions météorologiques de plus de 4000 aéroports (messages METAR et TAF).

Les stations disponibles sont représentées par des disques jaunes et rouges sur la carte.

Passer la souris dessus pour voir le nom de la station.

Cliquer dessus pour voir les observations et prévisions météorologiques.

Pour changer de carte: cliquez sur les boutons verts avec une croix noire pour zoomer, sur le bouton vert avec un tiret pour effectuer un zoom arrière, ou sur les flèches vertes pour les cartes adjacentes.


METAR-TAF: